createdAt,value
2023-05-21T00:01:03.451Z,100
2023-05-21T00:02:03.465Z,100
2023-05-21T00:03:03.547Z,100
2023-05-21T00:04:03.644Z,100
2023-05-21T00:05:03.457Z,100
2023-05-21T00:06:03.516Z,100
2023-05-21T00:07:03.455Z,100
2023-05-21T00:08:03.511Z,100
2023-05-21T00:09:03.487Z,100
2023-05-21T00:10:03.481Z,100
2023-05-21T00:12:03.467Z,100
2023-05-21T00:13:03.460Z,100
2023-05-21T00:14:03.492Z,100
2023-05-21T00:15:03.462Z,100
2023-05-21T00:16:03.519Z,100
2023-05-21T00:17:03.498Z,100
2023-05-21T00:18:03.520Z,100
2023-05-21T00:19:03.499Z,100
2023-05-21T00:20:03.482Z,100
2023-05-21T00:21:03.489Z,100
2023-05-21T00:22:03.464Z,100
2023-05-21T00:23:03.458Z,100
2023-05-21T00:24:03.485Z,100
2023-05-21T00:25:03.479Z,100
2023-05-21T00:26:03.483Z,100
2023-05-21T00:27:03.478Z,100
2023-05-21T00:28:03.473Z,100
2023-05-21T00:29:03.516Z,100
2023-05-21T00:30:03.472Z,100
2023-05-21T00:31:03.490Z,100
2023-05-21T00:32:03.685Z,100
2023-05-21T00:33:03.586Z,100
2023-05-21T00:34:03.658Z,100
2023-05-21T00:35:03.466Z,100
2023-05-21T00:36:03.466Z,100
2023-05-21T00:37:03.475Z,100
2023-05-21T00:38:03.455Z,100
2023-05-21T00:39:03.479Z,100
2023-05-21T00:40:03.467Z,100
2023-05-21T00:41:03.488Z,100
2023-05-21T00:43:03.498Z,100
2023-05-21T00:44:03.489Z,100
2023-05-21T00:45:03.482Z,100
2023-05-21T00:46:03.538Z,100
2023-05-21T00:47:03.447Z,100
2023-05-21T00:48:03.532Z,100
2023-05-21T00:49:03.480Z,100
2023-05-21T00:50:03.452Z,100
2023-05-21T00:51:03.531Z,100
2023-05-21T00:52:03.485Z,100
2023-05-21T00:53:03.465Z,100
2023-05-21T00:54:03.472Z,100
2023-05-21T00:55:03.479Z,100
2023-05-21T00:56:03.476Z,100
2023-05-21T00:57:03.455Z,100
2023-05-21T00:58:03.479Z,100
2023-05-21T00:59:03.485Z,100
2023-05-21T01:00:03.476Z,100
2023-05-21T01:01:03.661Z,100
2023-05-21T01:02:03.550Z,100
2023-05-21T01:03:03.582Z,100
2023-05-21T01:04:03.467Z,100
2023-05-21T01:05:03.503Z,100
2023-05-21T01:07:03.471Z,100
2023-05-21T01:08:03.587Z,100
2023-05-21T01:09:05.072Z,100
2023-05-21T01:10:03.468Z,100
2023-05-21T01:11:03.474Z,100
2023-05-21T01:12:03.520Z,100
2023-05-21T01:13:03.484Z,100
2023-05-21T01:15:03.461Z,100
2023-05-21T01:16:03.470Z,100
2023-05-21T01:17:03.480Z,100
2023-05-21T01:18:03.588Z,100
2023-05-21T01:19:03.592Z,100
2023-05-21T01:20:03.485Z,100
2023-05-21T01:21:03.460Z,100
2023-05-21T01:22:03.494Z,100
2023-05-21T01:24:03.472Z,100
2023-05-21T01:25:03.498Z,100
2023-05-21T01:26:03.480Z,100
2023-05-21T01:27:03.458Z,100
2023-05-21T01:28:03.463Z,100
2023-05-21T01:29:03.495Z,100
2023-05-21T01:31:03.464Z,100
2023-05-21T01:32:03.504Z,100
2023-05-21T01:33:03.678Z,100
2023-05-21T01:34:03.499Z,100
2023-05-21T01:35:03.478Z,100
2023-05-21T01:36:03.478Z,100
2023-05-21T01:37:03.472Z,100
2023-05-21T01:38:03.468Z,100
2023-05-21T01:39:03.562Z,100
2023-05-21T01:40:03.474Z,100
2023-05-21T01:41:03.473Z,100
2023-05-21T01:42:03.487Z,100
2023-05-21T01:43:03.509Z,100
2023-05-21T01:44:03.490Z,100
2023-05-21T01:45:03.497Z,100
2023-05-21T01:46:03.563Z,100
2023-05-21T01:47:03.522Z,100
2023-05-21T01:48:03.533Z,100
2023-05-21T01:49:03.481Z,100
2023-05-21T01:50:03.481Z,100
2023-05-21T01:51:03.501Z,100
2023-05-21T01:52:03.460Z,100
2023-05-21T01:53:03.488Z,100
2023-05-21T01:54:03.484Z,100
2023-05-21T01:55:03.493Z,100
2023-05-21T01:57:03.484Z,100
2023-05-21T01:58:03.549Z,100
2023-05-21T01:59:03.476Z,100
2023-05-21T02:01:03.486Z,100
2023-05-21T02:02:03.518Z,100
2023-05-21T02:03:03.666Z,100
2023-05-21T02:04:03.586Z,100
2023-05-21T02:05:03.461Z,100
2023-05-21T02:06:03.491Z,100
2023-05-21T02:07:03.468Z,100
2023-05-21T02:08:03.467Z,100
2023-05-21T02:09:03.478Z,100
2023-05-21T02:10:03.483Z,100
2023-05-21T02:11:03.495Z,100
2023-05-21T02:12:03.478Z,100
2023-05-21T02:13:03.524Z,100
2023-05-21T02:14:03.486Z,100
2023-05-21T02:15:03.477Z,100
2023-05-21T02:16:03.504Z,100
2023-05-21T02:17:03.481Z,100
2023-05-21T02:18:03.629Z,100
2023-05-21T02:19:03.477Z,100
2023-05-21T02:20:03.479Z,100
2023-05-21T02:21:03.505Z,100
2023-05-21T02:22:03.484Z,100
2023-05-21T02:23:03.483Z,100
2023-05-21T02:24:03.495Z,100
2023-05-21T02:25:03.491Z,100
2023-05-21T02:26:03.550Z,100
2023-05-21T02:27:03.511Z,100
2023-05-21T02:28:03.521Z,100
2023-05-21T02:29:03.551Z,100
2023-05-21T02:31:03.474Z,100
2023-05-21T02:32:03.484Z,100
2023-05-21T02:33:03.509Z,100
2023-05-21T02:34:03.636Z,100
2023-05-21T02:35:03.491Z,100
2023-05-21T02:36:03.484Z,100
2023-05-21T02:37:03.529Z,100
2023-05-21T02:38:03.475Z,100
2023-05-21T02:39:03.489Z,100
2023-05-21T02:40:03.496Z,100
2023-05-21T02:41:03.525Z,100
2023-05-21T02:42:03.490Z,100
2023-05-21T02:43:03.489Z,100
2023-05-21T02:44:03.483Z,100
2023-05-21T02:45:03.508Z,100
2023-05-21T02:46:03.581Z,100
2023-05-21T02:47:03.518Z,100
2023-05-21T02:48:03.478Z,100
2023-05-21T02:49:03.469Z,100
2023-05-21T02:50:03.483Z,100
2023-05-21T02:51:03.503Z,100
2023-05-21T02:52:03.485Z,100
2023-05-21T02:53:03.476Z,100
2023-05-21T02:54:03.476Z,100
2023-05-21T02:55:03.490Z,100
2023-05-21T02:56:03.482Z,100
2023-05-21T02:57:03.470Z,100
2023-05-21T02:58:03.492Z,100
2023-05-21T02:59:03.500Z,100
2023-05-21T03:01:03.534Z,100
2023-05-21T03:02:03.530Z,100
2023-05-21T03:03:03.592Z,100
2023-05-21T03:04:03.485Z,100
2023-05-21T03:05:03.480Z,100
2023-05-21T03:06:03.500Z,100
2023-05-21T03:07:03.510Z,100
2023-05-21T03:08:03.485Z,100
2023-05-21T03:09:03.484Z,100
2023-05-21T03:10:03.503Z,100
2023-05-21T03:12:03.671Z,100
2023-05-21T03:13:03.545Z,100
2023-05-21T03:14:03.484Z,100
2023-05-21T03:15:03.490Z,100
2023-05-21T03:16:03.521Z,100
2023-05-21T03:17:03.555Z,100
2023-05-21T03:18:03.535Z,100
2023-05-21T03:19:03.544Z,100
2023-05-21T03:20:03.478Z,100
2023-05-21T03:21:03.512Z,100
2023-05-21T03:22:03.510Z,100
2023-05-21T03:23:03.476Z,100
2023-05-21T03:24:03.530Z,100
2023-05-21T03:25:03.485Z,100
2023-05-21T03:26:03.551Z,100
2023-05-21T03:27:03.480Z,100
2023-05-21T03:28:03.505Z,100
2023-05-21T03:29:03.496Z,100
2023-05-21T03:31:03.481Z,100
2023-05-21T03:32:03.554Z,100
2023-05-21T03:33:03.624Z,100
2023-05-21T03:35:03.508Z,100
2023-05-21T03:36:03.523Z,100
2023-05-21T03:37:03.476Z,100
2023-05-21T03:39:03.509Z,100
2023-05-21T03:40:03.513Z,100
2023-05-21T03:42:03.495Z,100
2023-05-21T03:43:03.482Z,100
2023-05-21T03:44:03.492Z,100
2023-05-21T03:45:03.564Z,100
2023-05-21T03:46:03.514Z,100
2023-05-21T03:47:03.518Z,100
2023-05-21T03:48:03.546Z,100
2023-05-21T03:49:03.483Z,100
2023-05-21T03:50:03.510Z,100
2023-05-21T03:51:03.510Z,100
2023-05-21T03:52:03.495Z,100
2023-05-21T03:53:03.565Z,100
2023-05-21T03:54:03.515Z,100
2023-05-21T03:55:03.518Z,100
2023-05-21T03:56:03.487Z,100
2023-05-21T03:57:03.503Z,100
2023-05-21T03:58:03.524Z,100
2023-05-21T03:59:03.491Z,100
2023-05-21T04:00:03.490Z,100
2023-05-21T04:01:03.507Z,100
2023-05-21T04:02:03.563Z,100
2023-05-21T04:03:03.562Z,100
2023-05-21T04:04:03.593Z,100
2023-05-21T04:05:03.500Z,100
2023-05-21T04:06:03.521Z,100
2023-05-21T04:07:03.498Z,100
2023-05-21T04:08:03.509Z,100
2023-05-21T04:09:03.491Z,100
2023-05-21T04:10:03.505Z,100
2023-05-21T04:11:03.541Z,100
2023-05-21T04:12:03.509Z,100
2023-05-21T04:13:03.501Z,100
2023-05-21T04:14:03.512Z,100
2023-05-21T04:15:03.502Z,100
2023-05-21T04:16:03.550Z,100
2023-05-21T04:17:03.487Z,100
2023-05-21T04:18:03.539Z,100
2023-05-21T04:19:03.533Z,100
2023-05-21T04:20:03.525Z,100
2023-05-21T04:21:03.518Z,100
2023-05-21T04:22:03.499Z,100
2023-05-21T04:23:03.560Z,100
2023-05-21T04:24:03.495Z,100
2023-05-21T04:25:03.500Z,100
2023-05-21T04:26:03.504Z,100
2023-05-21T04:27:03.499Z,100
2023-05-21T04:28:03.515Z,100
2023-05-21T04:29:03.517Z,100
2023-05-21T04:30:03.490Z,100
2023-05-21T04:31:03.578Z,100
2023-05-21T04:32:03.527Z,100
2023-05-21T04:33:03.559Z,100
2023-05-21T04:34:03.544Z,100
2023-05-21T04:35:03.505Z,100
2023-05-21T04:36:03.533Z,100
2023-05-21T04:37:03.487Z,100
2023-05-21T04:38:04.320Z,100
2023-05-21T04:39:03.494Z,100
2023-05-21T04:40:03.488Z,100
2023-05-21T04:41:03.530Z,100
2023-05-21T04:42:03.507Z,100
2023-05-21T04:43:03.494Z,100
2023-05-21T04:44:03.503Z,100
2023-05-21T04:45:03.524Z,100
2023-05-21T04:46:03.503Z,100
2023-05-21T04:47:03.532Z,100
2023-05-21T04:48:03.526Z,100
2023-05-21T04:49:03.514Z,100
2023-05-21T04:50:03.498Z,100
2023-05-21T04:51:03.508Z,100
2023-05-21T04:52:03.515Z,100
2023-05-21T04:53:03.507Z,100
2023-05-21T04:54:03.512Z,100
2023-05-21T04:55:03.543Z,100
2023-05-21T04:56:03.514Z,100
2023-05-21T04:57:03.488Z,100
2023-05-21T04:58:03.493Z,100
2023-05-21T04:59:05.451Z,100
2023-05-21T05:00:03.518Z,100
2023-05-21T05:02:03.493Z,100
2023-05-21T05:03:03.576Z,100
2023-05-21T05:04:03.533Z,100
2023-05-21T05:05:03.517Z,100
2023-05-21T05:07:03.503Z,100
2023-05-21T05:08:03.497Z,100
2023-05-21T05:09:03.514Z,100
2023-05-21T05:10:03.505Z,100
2023-05-21T05:11:03.539Z,100
2023-05-21T05:12:03.492Z,100
2023-05-21T05:13:03.523Z,100
2023-05-21T05:14:03.496Z,100
2023-05-21T05:15:03.497Z,100
2023-05-21T05:16:03.589Z,100
2023-05-21T05:17:03.515Z,100
2023-05-21T05:18:03.634Z,100
2023-05-21T05:19:03.560Z,100
2023-05-21T05:20:03.519Z,100
2023-05-21T05:21:03.520Z,100
2023-05-21T05:22:03.505Z,100
2023-05-21T05:23:03.516Z,100
2023-05-21T05:24:03.522Z,100
2023-05-21T05:25:03.533Z,100
2023-05-21T05:26:03.509Z,100
2023-05-21T05:27:03.525Z,100
2023-05-21T05:28:03.522Z,100
2023-05-21T05:29:03.522Z,100
2023-05-21T05:30:03.504Z,100
2023-05-21T05:31:03.610Z,100
2023-05-21T05:32:03.514Z,100
2023-05-21T05:33:03.553Z,100
2023-05-21T05:34:03.520Z,100
2023-05-21T05:35:03.516Z,100
2023-05-21T05:36:03.515Z,100
2023-05-21T05:37:03.549Z,100
2023-05-21T05:38:03.672Z,100
2023-05-21T05:39:03.521Z,100
2023-05-21T05:40:03.522Z,100
2023-05-21T05:41:03.503Z,100
2023-05-21T05:42:03.525Z,100
2023-05-21T05:43:03.527Z,100
2023-05-21T05:44:03.510Z,100
2023-05-21T05:45:03.509Z,100
2023-05-21T05:46:03.574Z,100
2023-05-21T05:47:03.511Z,100
2023-05-21T05:49:03.534Z,100
2023-05-21T05:50:03.510Z,100
2023-05-21T05:51:03.495Z,100
2023-05-21T05:52:03.507Z,100
2023-05-21T05:53:03.545Z,100
2023-05-21T05:54:03.517Z,100
2023-05-21T05:55:03.506Z,100
2023-05-21T05:56:03.515Z,100
2023-05-21T05:57:03.550Z,100
2023-05-21T05:58:03.492Z,100
2023-05-21T05:59:03.496Z,100
2023-05-21T06:00:03.519Z,100
2023-05-21T06:01:03.496Z,100
2023-05-21T06:02:03.553Z,100
2023-05-21T06:03:03.628Z,100
2023-05-21T06:04:03.512Z,100
2023-05-21T06:05:03.534Z,100
2023-05-21T06:06:03.588Z,100
2023-05-21T06:07:03.522Z,100
2023-05-21T06:08:03.522Z,100
2023-05-21T06:09:03.508Z,100
2023-05-21T06:10:03.522Z,100
2023-05-21T06:11:03.535Z,100
2023-05-21T06:12:03.524Z,100
2023-05-21T06:13:03.540Z,100
2023-05-21T06:14:03.502Z,100
2023-05-21T06:15:03.511Z,100
2023-05-21T06:16:03.569Z,100
2023-05-21T06:17:03.656Z,100
2023-05-21T06:18:03.602Z,100
2023-05-21T06:19:03.605Z,100
2023-05-21T06:20:03.507Z,100
2023-05-21T06:21:03.508Z,100
2023-05-21T06:22:03.509Z,100
2023-05-21T06:23:03.512Z,100
2023-05-21T06:24:03.521Z,100
2023-05-21T06:25:03.516Z,100
2023-05-21T06:26:03.511Z,100
2023-05-21T06:27:03.505Z,100
2023-05-21T06:28:03.559Z,100
2023-05-21T06:29:03.530Z,100
2023-05-21T06:30:03.517Z,100
2023-05-21T06:32:03.515Z,100
2023-05-21T06:33:03.644Z,100
2023-05-21T06:34:03.642Z,100
2023-05-21T06:35:03.496Z,100
2023-05-21T06:36:03.519Z,100
2023-05-21T06:37:03.503Z,100
2023-05-21T06:38:03.732Z,100
2023-05-21T06:39:03.519Z,100
2023-05-21T06:40:03.532Z,100
2023-05-21T06:41:03.499Z,100
2023-05-21T06:42:03.530Z,100
2023-05-21T06:43:03.529Z,100
2023-05-21T06:44:03.510Z,100
2023-05-21T06:45:03.528Z,100
2023-05-21T06:46:03.585Z,100
2023-05-21T06:47:03.510Z,100
2023-05-21T06:48:03.534Z,100
2023-05-21T06:49:03.539Z,100
2023-05-21T06:50:03.505Z,100
2023-05-21T06:51:03.525Z,100
2023-05-21T06:52:03.525Z,100
2023-05-21T06:53:03.526Z,100
2023-05-21T06:54:03.505Z,100
2023-05-21T06:55:03.581Z,100
2023-05-21T06:56:03.545Z,100
2023-05-21T06:57:03.538Z,100
2023-05-21T06:58:03.515Z,100
2023-05-21T06:59:03.521Z,100
2023-05-21T07:00:03.601Z,100
2023-05-21T07:01:03.544Z,100
2023-05-21T07:02:04.763Z,100
2023-05-21T07:03:03.651Z,100
2023-05-21T07:04:03.528Z,100
2023-05-21T07:05:03.516Z,100
2023-05-21T07:06:03.535Z,100
2023-05-21T07:07:03.532Z,100
2023-05-21T07:08:03.516Z,100
2023-05-21T07:09:03.523Z,100
2023-05-21T07:10:03.519Z,100
2023-05-21T07:11:03.518Z,99.7
2023-05-21T07:12:03.539Z,99.7
2023-05-21T07:13:03.525Z,99.6
2023-05-21T07:14:03.545Z,100
2023-05-21T07:15:03.531Z,100
2023-05-21T07:16:03.531Z,100
2023-05-21T07:17:03.602Z,100
2023-05-21T07:18:03.571Z,100
2023-05-21T07:19:03.583Z,100
2023-05-21T07:20:03.541Z,100
2023-05-21T07:21:03.507Z,100
2023-05-21T07:22:03.522Z,99.9
2023-05-21T07:23:03.530Z,99.7
2023-05-21T07:24:03.526Z,99.5
2023-05-21T07:25:03.536Z,99
2023-05-21T07:26:03.525Z,98.1
2023-05-21T07:27:08.754Z,97.5
2023-05-21T07:28:05.876Z,97
2023-05-21T07:29:03.537Z,97.4
2023-05-21T07:30:03.525Z,97.4
2023-05-21T07:31:03.563Z,98.1
2023-05-21T07:32:03.539Z,97.9
2023-05-21T07:33:03.601Z,98.2
2023-05-21T07:34:03.574Z,97.4
2023-05-21T07:35:03.546Z,98
2023-05-21T07:36:03.518Z,97.6
2023-05-21T07:37:03.528Z,97.8
2023-05-21T07:38:03.573Z,97.4
2023-05-21T07:39:03.527Z,96.5
2023-05-21T07:40:03.523Z,97.3
2023-05-21T07:41:03.536Z,97
2023-05-21T07:42:03.515Z,97.6
2023-05-21T07:43:03.526Z,97.1
2023-05-21T07:44:03.534Z,96.6
2023-05-21T07:45:03.527Z,96
2023-05-21T07:46:03.542Z,94.3
2023-05-21T07:47:03.544Z,93.3
2023-05-21T07:49:03.513Z,92.6
2023-05-21T07:50:03.524Z,91.7
2023-05-21T07:51:03.512Z,90.4
2023-05-21T07:52:03.529Z,90.3
2023-05-21T07:53:03.544Z,91.3
2023-05-21T07:54:03.552Z,91.2
2023-05-21T07:55:03.534Z,91.1
2023-05-21T07:56:03.552Z,90.3
2023-05-21T07:57:03.544Z,90.6
2023-05-21T07:58:03.517Z,89.5
2023-05-21T07:59:03.537Z,89.4
2023-05-21T08:00:03.627Z,88.3
2023-05-21T08:01:03.547Z,88
2023-05-21T08:02:03.518Z,87.7
2023-05-21T08:03:03.620Z,85.7
2023-05-21T08:04:03.627Z,85.7
2023-05-21T08:05:03.604Z,85.3
2023-05-21T08:06:03.532Z,86.4
2023-05-21T08:07:03.540Z,85.8
2023-05-21T08:08:03.547Z,86.9
2023-05-21T08:09:03.590Z,86.6
2023-05-21T08:10:03.548Z,86.2
2023-05-21T08:11:03.540Z,87
2023-05-21T08:12:03.559Z,85.6
2023-05-21T08:13:03.533Z,85.8
2023-05-21T08:14:03.537Z,83.4
2023-05-21T08:15:03.523Z,83.3
2023-05-21T08:16:03.616Z,83.8
2023-05-21T08:17:03.540Z,83.2
2023-05-21T08:18:03.665Z,84.1
2023-05-21T08:19:03.622Z,84.3
2023-05-21T08:20:03.604Z,85.4
2023-05-21T08:22:03.553Z,86.4
2023-05-21T08:23:03.534Z,86.1
2023-05-21T08:24:03.533Z,86.7
2023-05-21T08:25:03.542Z,88.1
2023-05-21T08:26:03.538Z,86.8
2023-05-21T08:27:03.564Z,86.4
2023-05-21T08:28:03.523Z,87.1
2023-05-21T08:29:03.581Z,88.5
2023-05-21T08:30:03.545Z,86.6
2023-05-21T08:31:03.588Z,85.7
2023-05-21T08:32:03.667Z,86
2023-05-21T08:33:03.583Z,85.8
2023-05-21T08:34:03.538Z,86
2023-05-21T08:35:03.567Z,86.6
2023-05-21T08:37:03.550Z,87
2023-05-21T08:38:03.752Z,86.5
2023-05-21T08:39:03.529Z,87.5
2023-05-21T08:40:03.554Z,87.3
2023-05-21T08:41:03.532Z,86.5
2023-05-21T08:42:03.536Z,87.3
2023-05-21T08:43:03.529Z,85.6
2023-05-21T08:44:03.560Z,86.4
2023-05-21T08:45:03.567Z,85.7
2023-05-21T08:46:03.621Z,85.5
2023-05-21T08:47:03.537Z,85.6
2023-05-21T08:48:03.613Z,85.6
2023-05-21T08:49:03.589Z,85.8
2023-05-21T08:50:03.537Z,86.1
2023-05-21T08:51:03.538Z,84.5
2023-05-21T08:52:03.550Z,85.1
2023-05-21T08:53:07.586Z,84.7
2023-05-21T08:55:03.558Z,85.2
2023-05-21T08:56:03.547Z,85.2
2023-05-21T08:57:03.538Z,85.3
2023-05-21T08:58:03.569Z,84.9
2023-05-21T08:59:03.560Z,85.6
2023-05-21T09:00:03.537Z,85.4
2023-05-21T09:01:03.572Z,85.1
2023-05-21T09:02:03.549Z,85.8
2023-05-21T09:03:03.696Z,85.3
2023-05-21T09:04:18.866Z,85.2
2023-05-21T09:05:03.631Z,85.4
2023-05-21T09:07:03.559Z,83.1
2023-05-21T09:08:03.531Z,83.1
2023-05-21T09:09:03.545Z,82.7
2023-05-21T09:10:03.555Z,82.1
2023-05-21T09:11:03.593Z,82.2
2023-05-21T09:12:03.534Z,81.9
2023-05-21T09:13:03.563Z,80.7
2023-05-21T09:14:03.578Z,79.4
2023-05-21T09:15:03.542Z,78.3
2023-05-21T09:16:03.556Z,77.8
2023-05-21T09:17:03.625Z,78.7
2023-05-21T09:18:03.611Z,77.6
2023-05-21T09:19:04.724Z,76.5
2023-05-21T09:20:03.558Z,77
2023-05-21T09:21:03.561Z,77.3
2023-05-21T09:22:03.554Z,78.9
2023-05-21T09:23:03.615Z,78
2023-05-21T09:24:03.538Z,78.4
2023-05-21T09:25:03.562Z,77.7
2023-05-21T09:26:03.565Z,77.4
2023-05-21T09:27:03.548Z,77.4
2023-05-21T09:28:03.534Z,78.2
2023-05-21T09:29:03.551Z,78.2
2023-05-21T09:30:03.560Z,76.8
2023-05-21T09:31:03.603Z,75
2023-05-21T09:32:03.541Z,74.1
2023-05-21T09:33:03.734Z,75
2023-05-21T09:34:03.557Z,73.2
2023-05-21T09:35:03.546Z,74.1
2023-05-21T09:36:03.541Z,76.1
2023-05-21T09:37:04.983Z,77.1
2023-05-21T09:38:03.575Z,77.1
2023-05-21T09:39:03.557Z,77.5
2023-05-21T09:40:03.549Z,78.3
2023-05-21T09:41:03.561Z,77.5
2023-05-21T09:42:03.557Z,78.1
2023-05-21T09:43:03.549Z,78.6
2023-05-21T09:44:03.540Z,78.3
2023-05-21T09:45:03.552Z,78.3
2023-05-21T09:46:03.577Z,78.1
2023-05-21T09:47:03.540Z,77.6
2023-05-21T09:48:03.590Z,75.4
2023-05-21T09:49:03.561Z,75.9
2023-05-21T09:50:03.553Z,75
2023-05-21T09:51:03.548Z,76.2
2023-05-21T09:52:03.565Z,76.2
2023-05-21T09:53:03.565Z,77.8
2023-05-21T09:54:03.552Z,77.8
2023-05-21T09:55:03.564Z,75.9
2023-05-21T09:56:03.552Z,76.8
2023-05-21T09:57:03.556Z,75.6
2023-05-21T09:58:03.551Z,74.5
2023-05-21T09:59:03.554Z,73.3
2023-05-21T10:00:03.571Z,74.6
2023-05-21T10:01:03.561Z,75.1
2023-05-21T10:02:03.616Z,75.2
2023-05-21T10:03:03.578Z,75.6
2023-05-21T10:04:03.585Z,75.8
2023-05-21T10:05:03.585Z,76.1
2023-05-21T10:06:03.556Z,75.4
2023-05-21T10:07:03.564Z,74.3
2023-05-21T10:08:03.557Z,75.2
2023-05-21T10:09:05.619Z,74.5
2023-05-21T10:10:03.563Z,75.6
2023-05-21T10:11:03.567Z,75.3
2023-05-21T10:12:03.606Z,75.1
2023-05-21T10:13:03.576Z,75
2023-05-21T10:14:03.559Z,74.1
2023-05-21T10:15:03.578Z,72.1
2023-05-21T10:17:03.572Z,71.4
2023-05-21T10:18:03.671Z,71.5
2023-05-21T10:19:03.626Z,73.1
2023-05-21T10:20:03.551Z,71.1
2023-05-21T10:21:03.585Z,71
2023-05-21T10:22:03.588Z,71.4
2023-05-21T10:23:03.563Z,72.3
2023-05-21T10:24:03.563Z,68.8
2023-05-21T10:25:03.688Z,67.7
2023-05-21T10:27:03.553Z,69.3
2023-05-21T10:28:03.610Z,70
2023-05-21T10:29:03.579Z,69.9
2023-05-21T10:30:03.568Z,69.6
2023-05-21T10:31:03.567Z,70.6
2023-05-21T10:32:03.620Z,71.4
2023-05-21T10:33:03.606Z,71.2
2023-05-21T10:34:03.566Z,70.9
2023-05-21T10:35:03.577Z,71.1
2023-05-21T10:37:03.576Z,70.8
2023-05-21T10:38:03.572Z,71
2023-05-21T10:39:03.644Z,69.7
2023-05-21T10:40:03.562Z,70.4
2023-05-21T10:41:03.574Z,70.5
2023-05-21T10:42:03.583Z,71.5
2023-05-21T10:43:03.604Z,71.5
2023-05-21T10:44:03.568Z,72.3
2023-05-21T10:45:03.568Z,71.9
2023-05-21T10:46:03.607Z,72
2023-05-21T10:47:03.588Z,71.7
2023-05-21T10:48:03.611Z,70
2023-05-21T10:49:03.564Z,67.9
2023-05-21T10:50:03.580Z,68.1
2023-05-21T10:51:03.601Z,68.1
2023-05-21T10:52:03.607Z,66.9
2023-05-21T10:53:03.581Z,66.8
2023-05-21T10:54:03.573Z,67.4
2023-05-21T10:55:03.589Z,68.2
2023-05-21T10:56:03.628Z,68.7
2023-05-21T10:57:03.611Z,66.7
2023-05-21T10:58:03.577Z,66.7
2023-05-21T10:59:03.585Z,66.2
2023-05-21T11:01:03.609Z,67.1
2023-05-21T11:02:03.598Z,66.3
2023-05-21T11:03:03.676Z,66.7
2023-05-21T11:04:03.571Z,67.6
2023-05-21T11:05:03.590Z,67.4
2023-05-21T11:07:03.612Z,67.7
2023-05-21T11:08:03.604Z,67.4
2023-05-21T11:09:03.593Z,67.9
2023-05-21T11:10:03.573Z,67
2023-05-21T11:11:03.609Z,67.2
2023-05-21T11:12:03.593Z,67.5
2023-05-21T11:13:03.572Z,67.4
2023-05-21T11:14:03.592Z,66.6
2023-05-21T11:15:03.591Z,67
2023-05-21T11:16:03.586Z,67.2
2023-05-21T11:17:03.649Z,67.2
2023-05-21T11:18:03.580Z,66.8
2023-05-21T11:19:03.672Z,67.3
2023-05-21T11:20:03.602Z,68
2023-05-21T11:21:03.594Z,66.1
2023-05-21T11:22:03.616Z,65.5
2023-05-21T11:23:03.594Z,64.8
2023-05-21T11:24:03.586Z,63.9
2023-05-21T11:25:03.656Z,64.6
2023-05-21T11:26:03.595Z,63.6
2023-05-21T11:27:03.575Z,62.9
2023-05-21T11:28:03.584Z,62.5
2023-05-21T11:29:03.587Z,60.6
2023-05-21T11:30:03.607Z,59.5
2023-05-21T11:31:03.624Z,60.4
2023-05-21T11:32:03.624Z,59.5
2023-05-21T11:33:03.634Z,61
2023-05-21T11:34:03.595Z,61.1
2023-05-21T11:35:03.622Z,62.1
2023-05-21T11:37:03.598Z,62.1
2023-05-21T11:38:03.581Z,62.9
2023-05-21T11:39:03.626Z,62.3
2023-05-21T11:40:03.601Z,63.9
2023-05-21T11:41:03.603Z,63.3
2023-05-21T11:42:04.693Z,62.9
2023-05-21T11:43:03.592Z,62.2
2023-05-21T11:44:03.657Z,62.1
2023-05-21T11:45:03.602Z,62
2023-05-21T11:46:03.719Z,62.4
2023-05-21T11:47:03.669Z,61.7
2023-05-21T11:48:03.647Z,62
2023-05-21T11:49:03.628Z,62
2023-05-21T11:50:03.596Z,62.6
2023-05-21T11:51:03.660Z,62.5
2023-05-21T11:52:03.585Z,61.1
2023-05-21T11:53:03.605Z,60.9
2023-05-21T11:54:03.591Z,61.3
2023-05-21T11:55:03.614Z,60.9
2023-05-21T11:56:03.602Z,62.7
2023-05-21T11:57:03.607Z,61.4
2023-05-21T11:58:03.595Z,63.8
2023-05-21T11:59:03.600Z,64.2
2023-05-21T12:00:03.622Z,62.7
2023-05-21T12:01:03.623Z,63.8
2023-05-21T12:02:03.589Z,63.4
2023-05-21T12:03:03.711Z,63.3
2023-05-21T12:04:03.625Z,63.2
2023-05-21T12:05:03.606Z,64.4
2023-05-21T12:06:03.708Z,66.4
2023-05-21T12:07:03.691Z,64.5
2023-05-21T12:08:03.882Z,64.9
2023-05-21T12:09:03.634Z,60.9
2023-05-21T12:10:03.589Z,60.5
2023-05-21T12:11:03.597Z,63.4
2023-05-21T12:12:03.636Z,63.3
2023-05-21T12:13:03.621Z,63.1
2023-05-21T12:14:03.671Z,63.8
2023-05-21T12:15:03.624Z,64
2023-05-21T12:17:03.628Z,64
2023-05-21T12:18:03.667Z,64.3
2023-05-21T12:19:03.647Z,64.7
2023-05-21T12:20:03.646Z,61.1
2023-05-21T12:22:03.611Z,61.9
2023-05-21T12:23:03.606Z,63
2023-05-21T12:24:03.600Z,62.5
2023-05-21T12:25:03.649Z,61.7
2023-05-21T12:26:03.643Z,62.5
2023-05-21T12:27:03.612Z,62.8
2023-05-21T12:28:03.644Z,62.8
2023-05-21T12:29:03.630Z,63.4
2023-05-21T12:30:03.606Z,63.9
2023-05-21T12:31:03.608Z,64.9
2023-05-21T12:32:03.742Z,63
2023-05-21T12:33:03.664Z,62.4
2023-05-21T12:34:03.650Z,63.1
2023-05-21T12:35:03.651Z,61.3
2023-05-21T12:36:03.608Z,62.3
2023-05-21T12:37:03.629Z,60.8
2023-05-21T12:38:03.712Z,60.9
2023-05-21T12:39:03.621Z,61.3
2023-05-21T12:40:03.632Z,60.5
2023-05-21T12:41:03.653Z,61.1
2023-05-21T12:42:03.604Z,61.6
2023-05-21T12:43:03.607Z,63.2
2023-05-21T12:44:03.619Z,62.2
2023-05-21T12:45:03.633Z,60.9
2023-05-21T12:46:03.662Z,62.4
2023-05-21T12:47:03.613Z,62.4
2023-05-21T12:48:03.701Z,62.3
2023-05-21T12:49:03.627Z,63.5
2023-05-21T12:50:03.625Z,63
2023-05-21T12:51:03.620Z,61.9
2023-05-21T12:52:03.626Z,62.5
2023-05-21T12:53:03.627Z,63.4
2023-05-21T12:54:03.612Z,64.5
2023-05-21T12:55:03.630Z,63
2023-05-21T12:56:03.674Z,62.5
2023-05-21T12:57:03.616Z,62.5
2023-05-21T12:58:03.756Z,61.7
2023-05-21T12:59:03.656Z,61.2
2023-05-21T13:00:03.619Z,62.5
2023-05-21T13:01:05.356Z,63.4
2023-05-21T13:02:03.685Z,62.5
2023-05-21T13:03:03.664Z,60.3
2023-05-21T13:04:03.720Z,60.7
2023-05-21T13:05:03.610Z,60.9
2023-05-21T13:06:03.622Z,61.5
2023-05-21T13:07:05.034Z,60.5
2023-05-21T13:08:03.631Z,60
2023-05-21T13:09:03.654Z,60.5
2023-05-21T13:10:03.626Z,59.1
2023-05-21T13:11:03.679Z,59.8
2023-05-21T13:12:03.644Z,60.5
2023-05-21T13:13:03.662Z,60.1
2023-05-21T13:14:03.671Z,60.5
2023-05-21T13:15:03.635Z,61.3
2023-05-21T13:16:03.674Z,60.5
2023-05-21T13:17:03.640Z,61.9
2023-05-21T13:18:03.665Z,59.8
2023-05-21T13:19:03.670Z,60.7
2023-05-21T13:20:03.660Z,61.1
2023-05-21T13:21:03.656Z,60.3
2023-05-21T13:22:03.623Z,60.2
2023-05-21T13:23:05.852Z,61.9
2023-05-21T13:24:03.624Z,61.1
2023-05-21T13:25:03.642Z,59.3
2023-05-21T13:26:03.656Z,57.1
2023-05-21T13:27:03.643Z,57.9
2023-05-21T13:28:03.643Z,57.8
2023-05-21T13:29:03.631Z,58.7
2023-05-21T13:30:03.636Z,59.4
2023-05-21T13:31:03.665Z,59.5
2023-05-21T13:32:03.683Z,59.7
2023-05-21T13:33:03.885Z,57.4
2023-05-21T13:34:04.973Z,60.5
2023-05-21T13:35:03.644Z,59.6
2023-05-21T13:36:03.662Z,59.2
2023-05-21T13:37:03.647Z,59.7
2023-05-21T13:38:03.745Z,58.6
2023-05-21T13:39:03.642Z,59.1
2023-05-21T13:40:03.655Z,60
2023-05-21T13:41:03.685Z,59.9
2023-05-21T13:42:03.725Z,59.7
2023-05-21T13:43:03.703Z,57.6
2023-05-21T13:44:03.630Z,57.8
2023-05-21T13:45:03.654Z,57.9
2023-05-21T13:46:03.652Z,59.8
2023-05-21T13:47:03.813Z,58.7
2023-05-21T13:48:03.698Z,59
2023-05-21T13:49:03.650Z,59.4
2023-05-21T13:50:03.671Z,60
2023-05-21T13:52:03.680Z,59.1
2023-05-21T13:53:03.653Z,59.7
2023-05-21T13:54:03.661Z,59
2023-05-21T13:55:03.657Z,58.6
2023-05-21T13:56:03.654Z,59.2
2023-05-21T13:57:03.677Z,58.1
2023-05-21T13:58:03.638Z,58.1
2023-05-21T13:59:03.638Z,58.5
2023-05-21T14:00:03.657Z,58.4
2023-05-21T14:01:03.680Z,59.3
2023-05-21T14:02:03.661Z,57.7
2023-05-21T14:03:03.728Z,56.4
2023-05-21T14:04:03.651Z,57.7
2023-05-21T14:05:03.685Z,58.3
2023-05-21T14:06:03.674Z,59.2
2023-05-21T14:07:03.730Z,59
2023-05-21T14:08:03.807Z,57.8
2023-05-21T14:09:03.665Z,58.1